createdAt,value
2018-05-25T00:01:23.554Z,10.40
2018-05-25T00:03:52.610Z,10.80
2018-05-25T00:06:21.612Z,10.03
2018-05-25T00:08:50.605Z,14.77
2018-05-25T00:11:19.641Z,13.37
2018-05-25T00:13:48.644Z,9.40
2018-05-25T00:16:17.701Z,11.70
2018-05-25T00:18:46.703Z,9.23
2018-05-25T00:21:15.708Z,11.00
2018-05-25T00:23:44.696Z,13.57
2018-05-25T00:26:13.687Z,8.60
2018-05-25T00:28:42.745Z,13.30
2018-05-25T00:31:11.764Z,10.83
2018-05-25T00:33:40.783Z,9.60
2018-05-25T00:36:09.789Z,8.87
2018-05-25T00:38:38.783Z,11.87
2018-05-25T00:41:07.816Z,11.97
2018-05-25T00:43:36.831Z,12.80
2018-05-25T00:46:05.868Z,11.20
2018-05-25T00:48:34.870Z,11.23
2018-05-25T00:51:03.865Z,9.77
2018-05-25T00:53:32.880Z,9.33
2018-05-25T00:56:01.895Z,8.40
2018-05-25T00:58:30.905Z,8.13
2018-05-25T01:00:59.919Z,9.60
2018-05-25T01:03:28.972Z,9.77
2018-05-25T01:05:57.995Z,9.13
2018-05-25T01:08:26.997Z,10.50
2018-05-25T01:10:56.006Z,7.43
2018-05-25T01:13:25.025Z,13.00
2018-05-25T01:15:54.070Z,12.37
2018-05-25T01:18:23.071Z,9.87
2018-05-25T01:20:52.091Z,7.50
2018-05-25T01:23:21.101Z,10.57
2018-05-25T01:25:50.115Z,10.60
2018-05-25T01:28:19.176Z,10.90
2018-05-25T01:30:48.198Z,15.57
2018-05-25T01:33:17.223Z,13.03
2018-05-25T01:35:46.241Z,9.50
2018-05-25T01:38:15.259Z,10.30
2018-05-25T01:40:44.297Z,11.10
2018-05-25T01:43:13.324Z,11.53
2018-05-25T01:45:42.344Z,10.70
2018-05-25T01:48:11.364Z,11.90
2018-05-25T01:50:40.382Z,13.00
2018-05-25T01:53:09.376Z,12.23
2018-05-25T01:55:38.368Z,12.50
2018-05-25T01:58:07.396Z,12.63
2018-05-25T02:00:36.404Z,13.67
2018-05-25T02:03:05.419Z,11.47
2018-05-25T02:05:34.419Z,10.23
2018-05-25T02:08:03.416Z,12.43
2018-05-25T02:10:32.410Z,11.03
2018-05-25T02:13:01.393Z,9.33
2018-05-25T02:15:30.443Z,9.03
2018-05-25T02:17:59.437Z,11.43
2018-05-25T02:20:28.538Z,14.13
2018-05-25T02:22:57.540Z,13.13
2018-05-25T02:25:26.538Z,12.87
2018-05-25T02:27:55.585Z,13.23
2018-05-25T02:30:24.585Z,15.20
2018-05-25T02:32:53.575Z,18.70
2018-05-25T02:35:22.585Z,14.60
2018-05-25T02:37:51.603Z,16.60
2018-05-25T02:40:20.623Z,18.70
2018-05-25T02:42:49.633Z,17.17
2018-05-25T02:45:18.700Z,22.10
2018-05-25T02:47:47.819Z,24.27
2018-05-25T02:50:16.845Z,25.97
2018-05-25T02:52:45.853Z,19.87
2018-05-25T02:55:14.859Z,20.97
2018-05-25T02:57:43.908Z,21.73
2018-05-25T03:00:12.900Z,20.10
2018-05-25T03:02:41.904Z,22.30
2018-05-25T03:05:10.911Z,23.67
2018-05-25T03:07:39.902Z,22.57
2018-05-25T03:10:08.933Z,21.27
2018-05-25T03:12:37.941Z,19.13
2018-05-25T03:15:06.946Z,15.90
2018-05-25T03:17:35.954Z,20.17
2018-05-25T03:20:04.946Z,23.00
2018-05-25T03:22:33.970Z,24.20
2018-05-25T03:25:02.980Z,17.93
2018-05-25T03:27:31.971Z,17.23
2018-05-25T03:30:00.975Z,16.10
2018-05-25T03:32:29.979Z,16.83
2018-05-25T03:34:59.007Z,11.30
2018-05-25T03:37:27.991Z,12.67
2018-05-25T03:39:56.983Z,13.47
2018-05-25T03:42:25.964Z,17.23
2018-05-25T03:44:54.959Z,19.43
2018-05-25T03:47:23.991Z,17.70
2018-05-25T03:49:52.978Z,19.13
2018-05-25T03:52:21.957Z,14.40
2018-05-25T03:54:50.953Z,17.07
2018-05-25T03:57:19.946Z,15.17
2018-05-25T03:59:54.860Z,15.17
2018-05-25T04:02:23.862Z,18.67
2018-05-25T04:04:52.859Z,14.03
2018-05-25T04:07:21.835Z,12.93
2018-05-25T04:09:50.820Z,15.57
2018-05-25T04:12:19.817Z,14.30
2018-05-25T04:14:48.843Z,14.80
2018-05-25T04:17:17.813Z,14.30
2018-05-25T04:19:46.785Z,12.13
2018-05-25T04:22:15.761Z,12.00
2018-05-25T04:24:44.752Z,10.43
2018-05-25T04:27:13.787Z,12.77
2018-05-25T04:29:42.768Z,11.13
2018-05-25T04:32:11.762Z,11.43
2018-05-25T04:34:40.756Z,12.20
2018-05-25T04:37:09.737Z,10.37
2018-05-25T04:39:38.760Z,11.30
2018-05-25T04:42:07.727Z,10.17
2018-05-25T04:44:36.725Z,11.90
2018-05-25T04:47:05.703Z,13.87
2018-05-25T04:49:35.435Z,11.27
2018-05-25T04:52:04.474Z,9.67
2018-05-25T04:54:33.460Z,10.00
2018-05-25T04:57:02.439Z,8.50
2018-05-25T04:59:31.412Z,8.17
2018-05-25T05:02:00.391Z,8.27
2018-05-25T05:04:29.418Z,9.50
2018-05-25T05:06:58.397Z,9.13
2018-05-25T05:09:27.378Z,13.03
2018-05-25T05:11:56.379Z,11.73
2018-05-25T05:14:25.361Z,9.30
2018-05-25T05:16:54.338Z,7.40
2018-05-25T05:19:23.357Z,9.63
2018-05-25T05:21:52.339Z,8.43
2018-05-25T05:24:21.307Z,9.63
2018-05-25T05:26:50.302Z,7.97
2018-05-25T05:29:19.270Z,11.67
2018-05-25T05:31:48.239Z,8.90
2018-05-25T05:34:17.228Z,7.73
2018-05-25T05:36:46.255Z,9.13
2018-05-25T05:39:15.208Z,9.20
2018-05-25T05:41:44.171Z,8.20
2018-05-25T05:44:13.190Z,6.00
2018-05-25T05:46:42.153Z,7.90
2018-05-25T05:49:11.278Z,7.53
2018-05-25T05:51:40.241Z,6.43
2018-05-25T05:54:09.681Z,7.47
2018-05-25T05:56:38.633Z,9.07
2018-05-25T05:59:07.591Z,9.07
2018-05-25T06:01:36.561Z,7.37
2018-05-25T06:04:06.085Z,6.13
2018-05-25T06:06:35.773Z,6.17
2018-05-25T06:09:05.556Z,7.63
2018-05-25T06:11:34.714Z,10.83
2018-05-25T06:14:03.811Z,12.53
2018-05-25T06:19:28.699Z,10.73
2018-05-25T06:21:58.378Z,7.60
2018-05-25T06:24:27.378Z,7.63
2018-05-25T06:26:56.336Z,10.17
2018-05-25T06:29:25.316Z,8.83
2018-05-25T06:31:54.840Z,10.50
2018-05-25T06:34:23.792Z,9.30
2018-05-25T06:36:52.779Z,7.60
2018-05-25T06:39:21.730Z,9.07
2018-05-25T06:41:50.731Z,9.40
2018-05-25T06:44:19.745Z,9.17
2018-05-25T06:46:48.688Z,12.93
2018-05-25T06:49:17.659Z,9.70
2018-05-25T06:51:46.709Z,10.83
2018-05-25T06:54:15.706Z,6.83
2018-05-25T06:56:44.734Z,6.67
2018-05-25T06:59:13.699Z,9.23
2018-05-25T07:01:42.653Z,8.57
2018-05-25T07:04:11.690Z,8.40
2018-05-25T07:06:40.662Z,8.30
2018-05-25T07:09:09.623Z,6.77
2018-05-25T07:11:38.621Z,7.53
2018-05-25T07:14:07.573Z,9.70
2018-05-25T07:16:36.556Z,9.53
2018-05-25T07:19:05.526Z,14.53
2018-05-25T07:21:34.479Z,8.60
2018-05-25T07:24:03.574Z,7.10
2018-05-25T07:26:32.533Z,7.53
2018-05-25T07:29:01.532Z,7.27
2018-05-25T07:31:30.506Z,6.83
2018-05-25T07:33:59.473Z,9.33
2018-05-25T07:36:28.445Z,6.37
2018-05-25T07:38:57.402Z,9.87
2018-05-25T07:41:26.459Z,5.37
2018-05-25T07:43:55.426Z,5.70
2018-05-25T07:46:24.409Z,9.57
2018-05-25T07:48:53.369Z,7.23
2018-05-25T07:51:22.341Z,7.50
2018-05-25T07:53:51.338Z,7.77
2018-05-25T07:56:20.317Z,8.77
2018-05-25T07:58:49.275Z,8.80
2018-05-25T08:01:18.240Z,7.53
2018-05-25T08:03:47.203Z,9.07
2018-05-25T08:06:16.181Z,11.47
2018-05-25T08:08:45.153Z,8.13
2018-05-25T08:11:14.168Z,6.50
2018-05-25T08:13:43.129Z,7.67
2018-05-25T08:16:12.110Z,7.77
2018-05-25T08:18:41.059Z,5.23
2018-05-25T08:21:10.137Z,4.93
2018-05-25T08:23:39.146Z,4.93
2018-05-25T08:26:08.118Z,8.13
2018-05-25T08:28:37.091Z,4.33
2018-05-25T08:31:06.056Z,8.80
2018-05-25T08:33:35.124Z,8.40
2018-05-25T08:36:04.093Z,5.23
2018-05-25T08:38:33.091Z,5.87
2018-05-25T08:41:02.059Z,6.70
2018-05-25T08:43:31.012Z,6.00
2018-05-25T08:45:59.975Z,4.83
2018-05-25T08:48:29.007Z,6.73
2018-05-25T08:50:58.109Z,5.53
2018-05-25T08:53:27.065Z,6.13
2018-05-25T08:55:56.080Z,4.87
2018-05-25T08:58:25.069Z,5.70
2018-05-25T09:00:54.090Z,5.77
2018-05-25T09:03:23.760Z,7.57
2018-05-25T09:05:52.781Z,4.73
2018-05-25T09:08:21.755Z,9.43
2018-05-25T09:10:50.756Z,7.13
2018-05-25T09:13:19.873Z,7.03
2018-05-25T09:15:48.845Z,4.67
2018-05-25T09:18:17.800Z,7.80
2018-05-25T09:20:47.401Z,4.33
2018-05-25T09:23:16.475Z,6.33
2018-05-25T09:25:45.438Z,7.57
2018-05-25T09:28:14.392Z,5.47
2018-05-25T09:30:43.399Z,9.03
2018-05-25T09:33:12.357Z,6.03
2018-05-25T09:35:41.358Z,7.53
2018-05-25T09:38:10.313Z,7.40
2018-05-25T09:40:39.275Z,8.73
2018-05-25T09:43:08.273Z,5.17
2018-05-25T09:45:37.249Z,8.40
2018-05-25T09:48:06.216Z,5.33
2018-05-25T09:50:35.172Z,11.40
2018-05-25T09:53:04.142Z,6.73
2018-05-25T09:55:33.141Z,5.83
2018-05-25T09:58:02.128Z,4.67
2018-05-25T10:00:31.085Z,4.37
2018-05-25T10:03:00.741Z,5.30
2018-05-25T10:05:29.736Z,4.43
2018-05-25T10:07:58.725Z,5.23
2018-05-25T10:10:27.719Z,5.00
2018-05-25T10:12:56.725Z,6.83
2018-05-25T10:15:25.686Z,6.70
2018-05-25T10:17:54.690Z,6.97
2018-05-25T10:20:23.655Z,6.03
2018-05-25T10:22:52.649Z,10.77
2018-05-25T10:25:22.069Z,6.10
2018-05-25T10:27:51.562Z,10.27
2018-05-25T10:30:20.583Z,12.23
2018-05-25T10:32:49.561Z,7.00
2018-05-25T10:35:18.563Z,7.60
2018-05-25T10:37:47.622Z,16.43
2018-05-25T10:40:16.575Z,12.73
2018-05-25T10:42:45.589Z,12.13
2018-05-25T10:45:14.553Z,11.10
2018-05-25T10:47:43.938Z,10.53
2018-05-25T10:50:12.917Z,10.33
2018-05-25T10:52:41.890Z,10.07
2018-05-25T10:55:10.889Z,9.50
2018-05-25T10:57:39.855Z,9.83
2018-05-25T11:00:08.916Z,10.50
2018-05-25T11:02:37.892Z,10.40
2018-05-25T11:05:06.856Z,11.27
2018-05-25T11:07:35.894Z,12.57
2018-05-25T11:10:04.888Z,11.80
2018-05-25T11:12:33.921Z,9.83
2018-05-25T11:15:02.921Z,9.73
2018-05-25T11:17:32.429Z,10.50
2018-05-25T11:20:01.530Z,8.73
2018-05-25T11:22:30.492Z,9.20
2018-05-25T11:24:59.443Z,7.73
2018-05-25T11:27:28.407Z,7.00
2018-05-25T11:29:57.521Z,7.27
2018-05-25T11:32:26.809Z,7.60
2018-05-25T11:34:56.357Z,8.33
2018-05-25T11:37:25.404Z,7.10
2018-05-25T11:39:54.394Z,9.00
2018-05-25T11:42:23.450Z,8.07
2018-05-25T11:44:52.442Z,10.20
2018-05-25T11:47:21.408Z,7.23
2018-05-25T11:49:50.388Z,12.03
2018-05-25T11:52:19.362Z,8.07
2018-05-25T11:54:48.373Z,9.10
2018-05-25T11:57:17.358Z,9.20
2018-05-25T11:59:46.333Z,8.00
2018-05-25T12:02:15.327Z,9.10
2018-05-25T12:04:44.307Z,13.53
2018-05-25T12:07:13.611Z,8.53
2018-05-25T12:09:42.678Z,9.90
2018-05-25T12:12:11.662Z,7.73
2018-05-25T12:14:40.650Z,9.77
2018-05-25T12:17:09.636Z,11.40
2018-05-25T12:19:38.686Z,15.77
2018-05-25T12:22:07.686Z,9.27
2018-05-25T12:24:36.673Z,15.33
2018-05-25T12:27:05.667Z,11.17
2018-05-25T12:29:34.643Z,10.27
2018-05-25T12:32:03.692Z,9.53
2018-05-25T12:34:32.683Z,12.30
2018-05-25T12:37:01.663Z,11.60
2018-05-25T12:39:30.620Z,12.37
2018-05-25T12:41:59.575Z,8.80
2018-05-25T12:44:28.595Z,9.63
2018-05-25T12:46:57.565Z,10.20
2018-05-25T12:49:26.542Z,13.90
2018-05-25T12:51:55.508Z,11.63
2018-05-25T12:54:24.473Z,7.93
2018-05-25T12:56:53.493Z,13.20
2018-05-25T12:59:22.468Z,8.37
2018-05-25T13:01:51.458Z,8.77
2018-05-25T13:04:20.447Z,6.93
2018-05-25T13:06:49.433Z,6.60
2018-05-25T13:09:18.502Z,8.80
2018-05-25T13:11:47.464Z,6.17
2018-05-25T13:14:16.515Z,4.13
2018-05-25T13:16:45.500Z,7.60
2018-05-25T13:19:14.915Z,5.80
2018-05-25T13:21:43.973Z,4.43
2018-05-25T13:24:12.945Z,5.23
2018-05-25T13:26:42.749Z,5.40
2018-05-25T13:29:11.720Z,4.67
2018-05-25T13:31:41.453Z,5.80
2018-05-25T13:34:10.456Z,4.53
2018-05-25T13:36:39.463Z,6.10
2018-05-25T13:39:08.865Z,4.17
2018-05-25T13:41:38.421Z,4.93
2018-05-25T13:44:07.384Z,7.90
2018-05-25T13:46:36.416Z,5.83
2018-05-25T13:49:05.467Z,5.30
2018-05-25T13:51:34.427Z,5.03
2018-05-25T13:54:03.389Z,6.67
2018-05-25T13:56:32.346Z,6.00
2018-05-25T13:59:01.356Z,4.10
2018-05-25T14:01:30.319Z,4.33
2018-05-25T14:03:59.287Z,2.80
2018-05-25T14:06:28.250Z,3.57
2018-05-25T14:08:57.740Z,4.03
2018-05-25T14:11:26.796Z,2.83
2018-05-25T14:13:56.396Z,3.00
2018-05-25T14:16:25.354Z,2.43
2018-05-25T14:18:54.312Z,2.93
2018-05-25T14:21:23.699Z,5.43
2018-05-25T14:23:52.700Z,3.60
2018-05-25T14:26:21.678Z,3.27
2018-05-25T14:28:50.640Z,3.83
2018-05-25T14:31:19.658Z,3.07
2018-05-25T14:33:48.619Z,3.23
2018-05-25T14:36:17.629Z,4.37
2018-05-25T14:38:46.646Z,4.33
2018-05-25T14:41:15.613Z,4.13
2018-05-25T14:43:45.077Z,4.53
2018-05-25T14:46:14.369Z,3.65
2018-05-25T14:48:43.410Z,6.00
2018-05-25T14:51:12.373Z,5.90
2018-05-25T14:53:41.350Z,4.47
2018-05-25T14:56:10.312Z,4.43
2018-05-25T14:58:39.282Z,5.20
2018-05-25T15:01:08.285Z,4.23
2018-05-25T15:03:37.347Z,3.47
2018-05-25T15:06:06.742Z,3.97
2018-05-25T15:08:35.717Z,3.67
2018-05-25T15:11:05.309Z,5.97
2018-05-25T15:13:34.334Z,3.80
2018-05-25T15:16:03.298Z,5.78
2018-05-25T15:18:32.825Z,2.93
2018-05-25T15:21:01.824Z,6.00
2018-05-25T15:23:30.821Z,4.40
2018-05-25T15:25:59.823Z,6.90
2018-05-25T15:28:28.917Z,2.80
2018-05-25T15:30:57.977Z,4.07
2018-05-25T15:33:26.958Z,3.33
2018-05-25T15:35:56.218Z,5.50
2018-05-25T15:38:25.193Z,4.00
2018-05-25T15:40:54.213Z,3.83
2018-05-25T15:43:23.224Z,5.43
2018-05-25T15:45:52.205Z,7.87
2018-05-25T15:48:21.174Z,5.83
2018-05-25T15:50:50.572Z,9.27
2018-05-25T15:53:19.532Z,6.33
2018-05-25T15:55:48.530Z,6.00
2018-05-25T15:58:17.973Z,10.83
2018-05-25T16:00:46.940Z,6.40
2018-05-25T16:03:15.917Z,6.53
2018-05-25T16:05:44.897Z,5.83
2018-05-25T16:08:13.928Z,5.90
2018-05-25T16:10:42.894Z,6.07
2018-05-25T16:13:11.861Z,7.13
2018-05-25T16:15:40.892Z,6.10
2018-05-25T16:18:10.467Z,6.20
2018-05-25T16:20:39.485Z,7.37
2018-05-25T16:23:08.457Z,4.87
2018-05-25T16:25:38.099Z,5.50
2018-05-25T16:28:07.065Z,6.20
2018-05-25T16:30:36.582Z,5.73
2018-05-25T16:33:05.593Z,3.90
2018-05-25T16:35:34.568Z,3.80
2018-05-25T16:38:04.186Z,4.03
2018-05-25T16:40:33.149Z,6.93
2018-05-25T16:43:02.112Z,5.83
2018-05-25T16:45:31.125Z,7.23
2018-05-25T16:48:00.104Z,7.13
2018-05-25T16:50:29.070Z,4.17
2018-05-25T16:52:58.143Z,6.23
2018-05-25T16:55:27.202Z,5.20
2018-05-25T16:57:56.216Z,5.67
2018-05-25T17:00:25.179Z,3.40
2018-05-25T17:02:54.152Z,5.87
2018-05-25T17:05:23.123Z,4.33
2018-05-25T17:07:52.104Z,5.83
2018-05-25T17:10:21.109Z,4.47
2018-05-25T17:12:50.076Z,5.37
2018-05-25T17:15:19.037Z,4.57
2018-05-25T17:17:48.636Z,7.57
2018-05-25T17:20:17.603Z,4.83
2018-05-25T17:22:46.610Z,5.10
2018-05-25T17:25:16.275Z,5.77
2018-05-25T17:27:45.240Z,4.47
2018-05-25T17:30:14.204Z,6.47
2018-05-25T17:32:43.176Z,6.63
2018-05-25T17:35:12.183Z,6.17
2018-05-25T17:37:41.181Z,6.33
2018-05-25T17:40:10.139Z,7.80
2018-05-25T17:42:39.100Z,7.23
2018-05-25T17:45:08.079Z,5.13
2018-05-25T17:47:37.173Z,6.43
2018-05-25T17:50:06.129Z,4.20
2018-05-25T17:52:35.082Z,7.53
2018-05-25T17:55:04.637Z,4.33
2018-05-25T17:57:33.601Z,5.80
2018-05-25T18:00:02.617Z,5.90
2018-05-25T18:02:31.580Z,7.53
2018-05-25T18:05:00.538Z,5.93
2018-05-25T18:07:29.508Z,6.37
2018-05-25T18:09:59.188Z,7.97
2018-05-25T18:12:28.813Z,6.10
2018-05-25T18:14:58.310Z,7.03
2018-05-25T18:17:27.328Z,7.20
2018-05-25T18:19:56.297Z,5.77
2018-05-25T18:22:25.323Z,7.97
2018-05-25T18:24:54.330Z,6.83
2018-05-25T18:27:23.287Z,8.80
2018-05-25T18:29:52.236Z,7.97
2018-05-25T18:32:21.310Z,7.63
2018-05-25T18:34:50.302Z,7.40
2018-05-25T18:37:19.315Z,8.50
2018-05-25T18:39:48.284Z,7.10
2018-05-25T18:42:17.266Z,7.73
2018-05-25T18:44:46.220Z,7.63
2018-05-25T18:47:15.188Z,10.50
2018-05-25T18:49:44.286Z,8.10
2018-05-25T18:52:13.789Z,8.27
2018-05-25T18:54:42.759Z,9.43
2018-05-25T18:57:11.730Z,8.90
2018-05-25T18:59:40.701Z,10.13
2018-05-25T19:02:10.473Z,7.97
2018-05-25T19:04:39.481Z,7.43
2018-05-25T19:07:08.504Z,9.87
2018-05-25T19:09:37.459Z,8.70
2018-05-25T19:12:06.420Z,8.00
2018-05-25T19:14:36.773Z,6.53
2018-05-25T19:17:05.787Z,6.87
2018-05-25T19:19:34.753Z,7.33
2018-05-25T19:22:03.770Z,7.40
2018-05-25T19:24:32.780Z,9.83
2018-05-25T19:27:01.788Z,6.80
2018-05-25T19:29:30.770Z,9.73
2018-05-25T19:31:59.744Z,8.97
2018-05-25T19:34:28.704Z,8.77
2018-05-25T19:36:57.686Z,7.73
2018-05-25T19:39:26.734Z,6.57
2018-05-25T19:41:55.705Z,9.93
2018-05-25T19:44:24.672Z,9.53
2018-05-25T19:46:53.640Z,8.20
2018-05-25T19:49:22.619Z,11.80
2018-05-25T19:51:51.637Z,6.73
2018-05-25T19:54:20.596Z,7.47
2018-05-25T19:56:49.578Z,7.67
2018-05-25T19:59:18.543Z,9.23
2018-05-25T20:01:47.522Z,12.77
2018-05-25T20:04:16.536Z,10.73
2018-05-25T20:06:45.548Z,12.73
2018-05-25T20:09:14.545Z,13.23
2018-05-25T20:11:43.518Z,8.60
2018-05-25T20:14:12.551Z,12.83
2018-05-25T20:16:41.531Z,10.27
2018-05-25T20:19:10.513Z,11.23
2018-05-25T20:21:39.483Z,11.17
2018-05-25T20:24:08.458Z,9.57
2018-05-25T20:26:38.275Z,10.17
2018-05-25T20:29:07.251Z,10.67
2018-05-25T20:31:36.224Z,12.00
2018-05-25T20:34:05.194Z,9.93
2018-05-25T20:36:35.125Z,9.07
2018-05-25T20:39:04.144Z,8.73
2018-05-25T20:41:33.114Z,13.33
2018-05-25T20:44:02.074Z,9.27
2018-05-25T20:46:31.054Z,10.60
2018-05-25T20:49:00.018Z,11.00
2018-05-25T20:51:29.027Z,9.90
2018-05-25T20:53:57.988Z,9.20
2018-05-25T20:56:26.948Z,9.50
2018-05-25T20:58:55.910Z,9.57
2018-05-25T21:01:24.900Z,11.33
2018-05-25T21:03:53.913Z,10.93
2018-05-25T21:06:22.872Z,9.90
2018-05-25T21:08:51.936Z,12.30
2018-05-25T21:11:21.325Z,10.67
2018-05-25T21:13:50.288Z,9.57
2018-05-25T21:16:19.298Z,9.23
2018-05-25T21:22:13.614Z,11.20
2018-05-25T21:24:45.035Z,10.57
2018-05-25T21:28:02.218Z,8.73
2018-05-25T21:30:39.586Z,11.77
2018-05-25T21:33:08.619Z,11.17
2018-05-25T21:35:37.618Z,11.27
2018-05-25T21:38:08.333Z,10.67
2018-05-25T21:40:37.411Z,11.77
2018-05-25T21:43:07.718Z,11.67
2018-05-25T21:45:36.795Z,13.30
2018-05-25T21:48:05.818Z,12.57
2018-05-25T21:50:34.814Z,14.30
2018-05-25T21:53:03.805Z,12.77
2018-05-25T21:55:32.803Z,13.03
2018-05-25T21:58:01.861Z,16.13
2018-05-25T22:00:30.872Z,13.03
2018-05-25T22:02:59.879Z,12.13
2018-05-25T22:05:28.898Z,14.20
2018-05-25T22:07:57.909Z,14.03
2018-05-25T22:10:26.961Z,12.97
2018-05-25T22:12:55.952Z,14.10
2018-05-25T22:15:24.950Z,13.67
2018-05-25T22:17:53.949Z,12.63
2018-05-25T22:20:22.942Z,12.20
2018-05-25T22:22:51.991Z,14.37
2018-05-25T22:25:20.983Z,14.67
2018-05-25T22:27:49.986Z,15.97
2018-05-25T22:30:18.979Z,11.70
2018-05-25T22:32:47.975Z,12.57
2018-05-25T22:35:17.000Z,15.53
2018-05-25T22:37:45.993Z,14.97
2018-05-25T22:40:14.984Z,14.17
2018-05-25T22:42:49.851Z,13.73
2018-05-25T22:45:24.914Z,15.93
2018-05-25T22:47:59.706Z,14.00
2018-05-25T22:50:34.748Z,16.37
2018-05-25T22:53:09.445Z,12.43
2018-05-25T22:55:41.239Z,13.70
2018-05-25T22:58:10.245Z,12.67
2018-05-25T23:00:40.129Z,13.63
2018-05-25T23:03:09.162Z,15.53
2018-05-25T23:05:38.145Z,15.10
2018-05-25T23:08:07.167Z,16.57
2018-05-25T23:10:36.149Z,15.53
2018-05-25T23:13:05.120Z,15.20
2018-05-25T23:15:34.156Z,15.37
2018-05-25T23:18:03.133Z,17.70
2018-05-25T23:20:32.120Z,14.33
2018-05-25T23:23:01.114Z,17.57
2018-05-25T23:25:30.127Z,15.47
2018-05-25T23:27:59.173Z,14.83
2018-05-25T23:30:28.179Z,14.07
2018-05-25T23:32:57.159Z,16.60
2018-05-25T23:35:26.168Z,18.40
2018-05-25T23:37:55.164Z,20.83
2018-05-25T23:40:24.193Z,21.37
2018-05-25T23:42:53.193Z,26.87
2018-05-25T23:45:22.190Z,25.27
2018-05-25T23:47:51.189Z,21.53
2018-05-25T23:50:20.186Z,25.87
2018-05-25T23:52:49.178Z,28.80
2018-05-25T23:55:18.532Z,27.17
2018-05-25T23:57:47.589Z,27.37
